Flight Track Log - Related Links

Times and Time Zones

All times are in EDT time to prevent confusion due to time zone crossing. See the SWA1435 flight status page for this flight to view local times or setup timezone preferences in your user account.


Time Position Orientation Groundspeed Altitude Reporting Facility
EDT Latitude Longitude Course Direction KTS MPH feet Rate Location/Type
Thu 09:34:01 AM 38.7661 -90.3575 29° Northeast 170 196 2,400  Level FAA TRACON SMA TRACON (SMA)
Thu 09:34:21 AM 38.7750 -90.3761 301° West 192 221 2,700 2,462 Climbing FAA TRACON SMA TRACON (SMA)
Thu 09:34:40 AM 38.7872 -90.4008 302° West 210 242 4,000 3,750 Climbing FAA TRACON SMA TRACON (SMA)
Thu 09:35:01 AM 38.7958 -90.4181 303° West 196 226 5,200 2,341 Climbing FAA TRACON SMA TRACON (SMA)
Thu 09:35:21 AM 38.8042 -90.4358 301° West 189 217 5,600 1,846 Climbing FAA TRACON SMA TRACON (SMA)
Thu 09:35:40 AM 38.8169 -90.4614 303° West 215 247 6,400 2,250 Climbing FAA TRACON SMA TRACON (SMA)
Thu 09:36:01 AM 38.8289 -90.4836 305° West 240 276 7,100 2,049 Climbing FAA TRACON SMA TRACON (SMA)
Thu 09:36:21 AM 38.8411 -90.5081 303° West 259 298 7,800 2,700 Climbing FAA TRACON SMA TRACON (SMA)
Thu 09:36:41 AM 38.8575 -90.5400 303° West 278 320 8,900 3,150 Climbing FAA TRACON SMA TRACON (SMA)
Thu 09:37:01 AM 38.8711 -90.5667 303° West 287 330 9,900 2,550 Climbing FAA TRACON SMA TRACON (SMA)
Thu 09:37:21 AM 38.8847 -90.5942 302° West 296 341 10,600 2,250 Climbing FAA TRACON SMA TRACON (SMA)
Thu 09:37:41 AM 38.9033 -90.6314 303° West 318 366 11,400 2,462 Climbing FAA TRACON SMA TRACON (SMA)
Thu 09:38:00 AM 38.9192 -90.6622 303° West 334 384 12,200 2,550 Climbing FAA TRACON SMA TRACON (SMA)
Thu 09:38:21 AM 38.9353 -90.6944 303° West 346 398 13,100 3,951 Climbing FAA TRACON SMA TRACON (SMA)
Thu 09:38:41 AM 38.9556 -90.7328 304° West 342 394 14,900 4,462 Climbing FAA TRACON SMA TRACON (SMA)
Thu 09:39:00 AM 38.9706 -90.7631 303° West 329 379 16,000 2,700 Climbing FAA TRACON SMA TRACON (SMA)
Thu 09:39:21 AM 38.9858 -90.7939 303° West 330 380 16,700 2,488 Climbing FAA TRACON SMA TRACON (SMA)
Thu 09:39:41 AM 39.0053 -90.8328 303° West 336 387 17,700 3,150 Climbing FAA TRACON SMA TRACON (SMA)
Thu 09:40:01 AM 39.0214 -90.8647 303° West 343 395 18,800 2,850 Climbing FAA TRACON SMA TRACON (SMA)
Thu 09:40:21 AM 39.0381 -90.8964 304° West 347 399 19,600 2,700 Climbing FAA TRACON SMA TRACON (SMA)
Thu 09:40:41 AM 39.0583 -90.9369 303° West 351 404 20,600 2,550 Climbing FAA TRACON SMA TRACON (SMA)
Thu 09:41:01 AM 39.0744 -90.9697 302° West 353 406 21,300 2,154 Climbing FAA TRACON SMA TRACON (SMA)
Thu 09:41:20 AM 39.0906 -91.0028 302° West 356 410 22,000 2,250 Climbing FAA TRACON SMA TRACON (SMA)
Thu 09:41:41 AM 39.1106 -91.0450 301° West 360 414 22,800 2,049 Climbing FAA TRACON SMA TRACON (SMA)
Thu 09:42:01 AM 39.1258 -91.0794 300° West 360 414 23,400 1,950 Climbing FAA TRACON SMA TRACON (SMA)
Thu 09:42:21 AM 39.1403 -91.1150 298° West 364 419 24,100 2,250 Climbing FAA TRACON SMA TRACON (SMA)
Thu 09:42:41 AM 39.1594 -91.1586 300° West 365 420 24,900 2,250 Climbing FAA TRACON SMA TRACON (SMA)
Thu 09:43:01 AM 39.1781 -91.1922 306° West 371 427 25,600 2,100 Climbing FAA TRACON SMA TRACON (SMA)
Thu 09:43:21 AM 39.1978 -91.2250 308° West 375 432 26,300 1,385 Climbing FAA TRACON SMA TRACON (SMA)
Thu 09:43:40 AM 39.2214 -91.2678 305° West 380 437 26,500 450 Climbing FAA TRACON SMA TRACON (SMA)
Thu 09:44:01 AM 39.2414 -91.3036 306° West 394 453 26,600 732 Climbing FAA TRACON SMA TRACON (SMA)
Thu 09:44:21 AM 39.2619 -91.3403 306° West 408 470 27,000 1,350 Climbing FAA TRACON SMA TRACON (SMA)
Thu 09:44:41 AM 39.2867 -91.3881 304° West 416 479 27,500 1,050 Climbing FAA TRACON SMA TRACON (SMA)
Thu 09:45:01 AM 39.2992 -91.4053 313° West 420 483 27,700 1,157 Climbing FAA TRACON SMA TRACON (SMA)
Thu 09:46:04 AM 39.3678 -91.5997 295° West 428 493 29,100 1,632 Climbing Kansas City Center
Thu 09:47:06 AM 39.4408 -91.7358 305° West 435 501 31,100 1,548 Climbing Kansas City Center
Thu 09:48:08 AM 39.5092 -91.8628 305° West 434 499 32,300 1,317 Climbing Kansas City Center
Thu 09:49:09 AM 39.5775 -91.9919 304° West 436 502 33,800 843 Climbing Kansas City Center
Thu 09:50:09 AM 39.6458 -92.1200 305° West 434 499 34,000 99 Climbing Kansas City Center
Thu 09:51:10 AM 39.7136 -92.2486 304° West 434 499 34,000  Level Kansas City Center
Thu 09:52:11 AM 39.7953 -92.4033 305° West 434 499 34,000  Level Kansas City Center
Thu 09:53:15 AM 39.8642 -92.5325 305° West 436 502 34,000  Level Kansas City Center
Thu 09:54:15 AM 39.9336 -92.6653 304° West 440 506 34,000  Level Kansas City Center
Thu 09:55:15 AM 40.0031 -92.8000 304° West 445 512 34,000  Level Kansas City Center
Thu 09:56:19 AM 40.0786 -92.9458 304° West 444 511 34,000  Level Kansas City Center
Thu 09:57:20 AM 40.1411 -93.0672 304° West 444 511 34,000  Level Kansas City Center
Thu 09:58:21 AM 40.2075 -93.1986 304° West 436 502 34,000  Level Kansas City Center
Thu 09:59:20 AM 40.2728 -93.3275 304° West 429 494 34,000  Level Kansas City Center
Thu 10:00:24 AM 40.3394 -93.4558 304° West 428 493 34,000  Level Kansas City Center
Thu 10:01:25 AM 40.4172 -93.6106 303° West 425 489 34,000  Level Kansas City Center
Thu 10:02:36 AM 40.4936 -93.7656 303° West 425 489 34,000  Level Minneapolis Center
Thu 10:03:38 AM 40.5581 -93.8939 303° West 424 488 34,000  Level Minneapolis Center
Thu 10:04:39 AM 40.6078 -94.0292 296° West 421 484 34,000 -1,268 Level Minneapolis Center
Thu 10:05:41 AM 40.6283 -94.1756 281° West 413 475 31,400 -2,439 Descending Minneapolis Center
Thu 10:06:42 AM 40.6522 -94.3189 282° West 408 470 29,000 -2,293 Descending Minneapolis Center
Thu 10:07:44 AM 40.6739 -94.4544 282° West 391 450 26,700 -2,195 Descending Minneapolis Center
Thu 10:08:45 AM 40.6964 -94.5894 282° West 371 427 24,500 -2,244 Descending Minneapolis Center
Thu 10:09:47 AM 40.7192 -94.7369 282° West 348 400 22,100 -2,146 Descending Minneapolis Center
Thu 10:10:48 AM 40.7389 -94.8511 283° West 328 377 20,100 -1,854 Descending Minneapolis Center
Thu 10:11:50 AM 40.7556 -94.9608 281° West 311 358 18,300 -1,909 Descending Minneapolis Center
Thu 10:13:00 AM 40.7897 -95.0742 292° West 282 325 15,900 -2,146 Descending Minneapolis Center
Thu 10:13:53 AM 40.8175 -95.1558 294° West 306 352 13,900 -2,053 Descending Minneapolis Center
Thu 10:14:54 AM 40.8753 -95.2486 309° West 324 373 12,000 -1,869 Descending Minneapolis Center
Thu 10:15:55 AM 40.9344 -95.3433 310° West 330 380 10,100 -1,415 Descending Minneapolis Center
Thu 10:16:57 AM 40.9894 -95.4364 308° West 328 377 9,100 -1,406 Descending Minneapolis Center
Thu 10:18:03 AM 41.0500 -95.5497 305° West 283 326 7,100 -1,438 Descending Minneapolis Center
Thu 10:18:58 AM 41.0764 -95.6294 294° West 277 319 6,200 -835 Descending Minneapolis Center
Thu 10:19:58 AM 41.1069 -95.7089 297° West 218 251 5,500 -694 Descending Minneapolis Center
Thu 10:20:59 AM 41.1472 -95.7483 324° Northwest 166 191 4,800 -810 Descending Minneapolis Center
Thu 10:22:04 AM 41.1842 -95.7825 325° Northwest 184 212 3,800 -898 Descending Minneapolis Center
Thu 10:23:06 AM 41.2144 -95.8125 323° Northwest 112 129 2,900 -732 Descending Minneapolis Center
Thu 10:24:07 AM 41.2414 -95.8425 320° Northwest 115 132 2,300 -645 Descending Minneapolis Center
Thu 10:25:07 AM 41.2683 -95.8672 325° Northwest 119 137 1,600 -634 Descending Minneapolis Center
Thu 10:26:10 AM 41.2911 -95.8836 332° Northwest 118 136 1,000 -571 Descending Minneapolis Center
Thu 10:28:00 AM 41.3000 -95.8833 312° West  Level FlightAware Approximate

Login

Don't have an account? Register now (free) for customized features, flight alerts, and more!